Time;durP1;ratioP1;P1;durP2;ratioP2;P2;SDS_P1;SDS_P2;PMS_P1;PMS_P2;Temp;Humidity;BMP_temperature;BMP_pressure;BME280_temperature;BME280_humidity;BME280_pressure;Samples;Min_cycle;Max_cycle;Signal;HPM_P1;HPM_P2
2020/12/17 00:00:19;;;;;;;8.13;3.35;;;26.20;49.90;;;;;;5067543;28;20024;-48
2020/12/17 00:02:46;;;;;;;8.07;3.10;;;26.20;49.60;;;;;;5074110;28;20025;-49
2020/12/17 00:05:13;;;;;;;5.43;2.70;;;26.20;49.50;;;;;;5075228;28;20012;-49
2020/12/17 00:07:40;;;;;;;6.07;2.40;;;26.20;49.50;;;;;;5075117;28;20111;-49
2020/12/17 00:10:08;;;;;;;5.95;2.67;;;26.30;49.50;;;;;;5071586;28;20032;-49
2020/12/17 00:12:39;;;;;;;9.15;2.95;;;26.30;49.60;;;;;;5061510;28;20032;-48
2020/12/17 00:15:10;;;;;;;7.77;2.70;;;26.30;49.60;;;;;;5070893;28;20334;-48
2020/12/17 00:17:52;;;;;;;6.10;2.90;;;26.30;49.50;;;;;;5074043;28;20025;-48
2020/12/17 00:20:21;;;;;;;7.30;2.65;;;26.30;49.60;;;;;;5074635;28;20033;-49
2020/12/17 00:22:48;;;;;;;8.35;2.72;;;26.30;49.50;;;;;;5074865;28;20013;-50
2020/12/17 00:25:17;;;;;;;7.15;2.83;;;26.30;49.50;;;;;;5075104;28;20460;-49
2020/12/17 00:27:45;;;;;;;11.75;2.88;;;26.40;49.50;;;;;;5074457;28;20043;-50
2020/12/17 00:30:13;;;;;;;8.13;2.83;;;26.40;49.50;;;;;;5074044;28;20090;-49
2020/12/17 00:32:41;;;;;;;9.85;2.80;;;26.40;49.50;;;;;;5074075;28;20491;-48
2020/12/17 00:35:09;;;;;;;9.10;2.70;;;26.40;49.50;;;;;;5074355;28;20456;-49
2020/12/17 00:37:36;;;;;;;7.10;2.70;;;26.40;49.50;;;;;;5074548;28;20522;-49
2020/12/17 00:40:09;;;;;;;8.18;2.70;;;26.50;49.60;;;;;;5075167;28;20047;-49
2020/12/17 00:42:46;;;;;;;9.40;2.97;;;26.60;49.60;;;;;;5074471;28;20032;-50
2020/12/17 00:45:13;;;;;;;8.50;2.65;;;26.60;49.50;;;;;;5074586;28;20055;-50
2020/12/17 00:47:40;;;;;;;6.53;2.20;;;26.70;49.50;;;;;;5074098;28;20363;-50
2020/12/17 00:50:08;;;;;;;7.72;2.90;;;26.90;49.50;;;;;;5074176;28;20478;-49
2020/12/17 00:52:39;;;;;;;5.57;2.38;;;27.00;49.40;;;;;;5074381;28;20021;-50
2020/12/17 00:55:06;;;;;;;6.25;2.55;;;27.10;49.20;;;;;;5073976;28;20028;-49
2020/12/17 00:57:32;;;;;;;8.05;2.47;;;27.30;49.10;;;;;;5073898;28;20087;-50
2020/12/17 00:59:59;;;;;;;6.45;2.00;;;27.50;49.00;;;;;;5073426;28;20360;-50
2020/12/17 01:02:26;;;;;;;9.38;2.47;;;27.60;48.70;;;;;;5074158;28;20026;-49
2020/12/17 01:04:52;;;;;;;9.88;2.40;;;27.80;48.60;;;;;;5071010;28;20020;-50
2020/12/17 01:07:19;;;;;;;5.70;2.33;;;27.90;48.30;;;;;;5074216;28;20116;-49
2020/12/17 01:09:46;;;;;;;9.15;2.33;;;28.00;48.10;;;;;;5073715;28;20452;-49
2020/12/17 01:12:12;;;;;;;7.65;2.28;;;28.10;47.90;;;;;;5074145;28;20473;-50
2020/12/17 01:14:39;;;;;;;4.45;2.15;;;28.30;47.80;;;;;;5074309;28;20020;-50
2020/12/17 01:17:07;;;;;;;8.90;2.42;;;28.40;47.70;;;;;;5074024;28;20029;-50
2020/12/17 01:19:34;;;;;;;5.18;1.90;;;28.40;47.40;;;;;;5073823;28;20013;-50
2020/12/17 01:22:01;;;;;;;5.65;2.25;;;28.50;47.30;;;;;;5074040;28;20028;-49
2020/12/17 01:24:28;;;;;;;4.88;2.00;;;28.60;47.20;;;;;;5073713;28;20021;-49
2020/12/17 01:26:58;;;;;;;6.68;2.10;;;28.70;47.00;;;;;;5073906;28;20028;-49
2020/12/17 01:29:25;;;;;;;6.07;1.90;;;28.80;46.90;;;;;;5073436;28;20499;-49
2020/12/17 01:31:57;;;;;;;6.78;2.22;;;28.80;46.70;;;;;;5073486;28;20016;-49
2020/12/17 01:34:24;;;;;;;8.63;2.20;;;28.90;46.60;;;;;;5074588;28;20049;-49
2020/12/17 01:36:52;;;;;;;7.00;1.90;;;28.90;46.50;;;;;;5073839;28;20341;-49
2020/12/17 01:39:18;;;;;;;4.63;1.83;;;29.00;46.40;;;;;;5073279;28;20027;-48
2020/12/17 01:41:45;;;;;;;8.38;1.92;;;29.10;46.40;;;;;;5074057;28;20514;-49
2020/12/17 01:44:11;;;;;;;8.52;2.20;;;29.10;46.30;;;;;;5074383;28;20455;-49
2020/12/17 01:46:38;;;;;;;8.43;2.20;;;29.10;46.20;;;;;;5074260;28;20029;-49
2020/12/17 01:49:05;;;;;;;7.57;1.90;;;29.10;46.10;;;;;;5073437;28;20046;-49
2020/12/17 01:51:31;;;;;;;5.93;1.80;;;29.20;46.20;;;;;;5073761;28;20027;-49
2020/12/17 01:53:58;;;;;;;8.57;1.60;;;29.20;46.10;;;;;;5073002;28;20115;-49
2020/12/17 01:56:26;;;;;;;7.32;1.92;;;29.30;46.10;;;;;;5073580;28;20089;-49
2020/12/17 01:59:28;;;;;;;6.28;1.67;;;29.30;46.00;;;;;;5073977;28;20444;-50
2020/12/17 02:01:54;;;;;;;;;;;29.40;46.20;;;;;;5073681;28;20043;-50
2020/12/17 02:04:24;;;;;;;5.55;1.80;;;29.40;46.60;;;;;;5073339;28;19901;-50
2020/12/17 02:06:51;;;;;;;6.22;1.70;;;29.50;46.10;;;;;;5073386;28;20056;-49
2020/12/17 02:09:19;;;;;;;4.90;1.83;;;29.50;46.00;;;;;;5073253;28;20094;-50
2020/12/17 02:11:56;;;;;;;5.53;1.83;;;29.60;45.90;;;;;;5073536;28;20531;-50
2020/12/17 02:14:24;;;;;;;6.28;1.50;;;29.70;45.90;;;;;;5074096;28;20020;-50
2020/12/17 02:16:51;;;;;;;4.53;1.90;;;29.80;45.70;;;;;;5073743;28;20073;-50
2020/12/17 02:19:18;;;;;;;6.22;1.75;;;29.90;45.70;;;;;;5073444;28;20021;-50
2020/12/17 02:21:45;;;;;;;4.57;1.80;;;30.00;45.60;;;;;;5073321;28;20035;-50
2020/12/17 02:24:13;;;;;;;4.97;1.88;;;30.10;45.40;;;;;;5072870;28;20101;-49
2020/12/17 02:26:39;;;;;;;4.82;1.50;;;30.20;45.40;;;;;;5075817;28;20021;-49
2020/12/17 02:29:06;;;;;;;5.57;1.67;;;30.30;45.20;;;;;;5077072;28;20082;-50
2020/12/17 02:31:36;;;;;;;4.90;1.70;;;30.40;45.20;;;;;;5077046;28;20025;-49
2020/12/17 02:34:03;;;;;;;3.95;1.60;;;30.50;45.10;;;;;;5077263;28;20109;-49
2020/12/17 02:36:29;;;;;;;5.65;1.73;;;30.60;45.00;;;;;;5076794;28;20403;-49
2020/12/17 02:38:56;;;;;;;4.78;1.70;;;30.70;44.90;;;;;;5076264;28;20054;-49
2020/12/17 02:41:22;;;;;;;4.22;1.60;;;30.70;44.70;;;;;;5076920;28;20021;-49
2020/12/17 02:43:50;;;;;;;5.28;1.80;;;30.90;44.80;;;;;;5077148;28;20021;-49
2020/12/17 02:46:17;;;;;;;3.72;1.70;;;30.90;44.60;;;;;;5076745;28;20024;-49
2020/12/17 02:48:47;;;;;;;4.88;1.75;;;30.90;44.20;;;;;;5076713;28;20115;-50
2020/12/17 02:51:14;;;;;;;4.77;1.80;;;31.00;43.40;;;;;;5075896;28;20028;-49
2020/12/17 02:53:40;;;;;;;5.20;1.40;;;31.00;43.10;;;;;;5076555;28;20120;-50
2020/12/17 02:56:07;;;;;;;4.30;1.90;;;31.00;42.90;;;;;;5076845;28;20032;-49
2020/12/17 02:58:33;;;;;;;3.55;1.80;;;31.00;42.80;;;;;;5076867;28;20059;-50
2020/12/17 03:01:00;;;;;;;5.95;1.63;;;31.00;42.80;;;;;;5076252;28;20529;-50
2020/12/17 03:03:26;;;;;;;4.97;1.50;;;30.90;42.50;;;;;;5076225;28;20020;-49
2020/12/17 03:05:53;;;;;;;3.38;1.85;;;30.90;42.60;;;;;;5076093;28;20020;-50
2020/12/17 03:08:19;;;;;;;3.33;1.77;;;30.90;42.70;;;;;;5076354;28;20115;-49
2020/12/17 03:10:46;;;;;;;5.97;1.92;;;30.80;42.50;;;;;;5076357;28;20032;-49
2020/12/17 03:13:12;;;;;;;4.45;1.90;;;30.70;42.50;;;;;;5076059;28;20464;-49
2020/12/17 03:15:39;;;;;;;7.88;2.22;;;30.60;42.60;;;;;;5076225;28;20457;-49
2020/12/17 03:18:05;;;;;;;5.70;1.98;;;30.60;42.70;;;;;;5076182;28;20048;-49
2020/12/17 03:20:32;;;;;;;5.35;1.90;;;30.50;42.70;;;;;;5075645;28;20024;-49
2020/12/17 03:22:58;;;;;;;5.00;1.90;;;30.40;42.80;;;;;;5076070;28;20475;-49
2020/12/17 03:25:25;;;;;;;5.10;1.85;;;30.30;42.80;;;;;;5076095;28;20027;-49
2020/12/17 03:27:51;;;;;;;4.70;1.73;;;30.20;43.10;;;;;;5075999;28;20027;-49
2020/12/17 03:30:18;;;;;;;5.28;1.70;;;30.10;43.10;;;;;;5074729;28;20468;-50
2020/12/17 03:32:44;;;;;;;4.75;1.65;;;30.00;43.20;;;;;;5075934;28;20460;-50
2020/12/17 03:35:11;;;;;;;7.90;1.88;;;29.90;43.30;;;;;;5075643;28;20047;-49
2020/12/17 03:37:37;;;;;;;5.05;2.08;;;29.80;43.40;;;;;;5074884;28;20059;-49
2020/12/17 03:40:04;;;;;;;6.43;1.80;;;29.70;43.60;;;;;;5076107;28;20021;-49
2020/12/17 03:42:31;;;;;;;3.92;1.60;;;29.60;43.60;;;;;;5075540;28;20361;-50
2020/12/17 03:44:57;;;;;;;4.57;1.77;;;29.50;43.70;;;;;;5075737;28;20108;-50
2020/12/17 03:47:24;;;;;;;4.28;1.98;;;29.40;44.00;;;;;;5075626;28;20020;-50
2020/12/17 03:49:50;;;;;;;4.38;1.80;;;29.30;43.90;;;;;;5075664;28;20048;-49
2020/12/17 03:52:17;;;;;;;3.70;1.77;;;29.30;44.20;;;;;;5074836;28;20023;-49
2020/12/17 03:54:43;;;;;;;17.58;11.65;;;29.20;44.30;;;;;;5075178;28;20025;-49
2020/12/17 03:57:10;;;;;;;5.72;2.78;;;29.10;44.30;;;;;;5075203;28;20483;-50
2020/12/17 03:59:36;;;;;;;6.95;2.65;;;29.00;44.30;;;;;;5075174;28;20048;-49
2020/12/17 04:02:03;;;;;;;7.75;2.60;;;29.00;44.60;;;;;;5075400;28;20353;-50
2020/12/17 04:04:29;;;;;;;5.30;2.67;;;28.80;44.60;;;;;;5075058;28;20025;-50
2020/12/17 04:06:56;;;;;;;6.13;2.55;;;28.70;44.70;;;;;;5074912;28;20024;-50
2020/12/17 04:09:22;;;;;;;5.30;2.40;;;28.70;44.90;;;;;;5074901;28;20107;-50
2020/12/17 04:11:49;;;;;;;4.93;2.08;;;28.60;45.00;;;;;;5075474;28;20020;-49
2020/12/17 04:14:15;;;;;;;5.63;2.80;;;28.50;45.10;;;;;;5074878;28;20029;-49
2020/12/17 04:16:42;;;;;;;5.28;2.53;;;28.40;45.30;;;;;;5075070;28;20468;-49
2020/12/17 04:19:08;;;;;;;7.80;2.95;;;28.30;45.30;;;;;;5074761;28;20409;-49
2020/12/17 04:21:35;;;;;;;8.70;3.38;;;28.20;45.50;;;;;;5074976;28;20101;-50
2020/12/17 04:24:01;;;;;;;8.40;3.30;;;28.20;45.60;;;;;;5074671;28;20368;-49
2020/12/17 04:26:28;;;;;;;6.05;3.22;;;28.10;45.70;;;;;;5074394;28;20040;-49
2020/12/17 04:28:54;;;;;;;6.57;3.03;;;28.00;45.80;;;;;;5074573;28;20085;-50
2020/12/17 04:31:21;;;;;;;6.00;2.83;;;27.90;46.00;;;;;;5074803;28;20021;-49
2020/12/17 04:33:47;;;;;;;8.20;2.85;;;27.90;46.10;;;;;;5074603;28;20044;-49
2020/12/17 04:36:14;;;;;;;6.72;2.85;;;27.80;46.20;;;;;;5074737;28;20021;-49
2020/12/17 04:38:40;;;;;;;7.30;3.25;;;27.70;46.20;;;;;;5075245;28;20467;-50
2020/12/17 04:41:07;;;;;;;10.93;3.10;;;27.70;46.30;;;;;;5074931;28;20021;-49
2020/12/17 04:43:33;;;;;;;8.95;3.10;;;27.60;46.40;;;;;;5074607;28;20075;-50
2020/12/17 04:46:04;;;;;;;10.15;3.42;;;27.50;46.50;;;;;;5074472;28;20453;-49
2020/12/17 04:48:33;;;;;;;6.30;3.15;;;27.50;46.70;;;;;;5054420;28;20032;-50
2020/12/17 04:50:59;;;;;;;6.78;3.40;;;27.40;46.90;;;;;;5054415;28;20037;-50
2020/12/17 04:53:27;;;;;;;10.43;3.22;;;27.30;47.00;;;;;;5054456;28;20028;-50
2020/12/17 04:55:55;;;;;;;10.57;2.60;;;27.40;47.20;;;;;;5054398;28;20031;-50
2020/12/17 04:58:22;;;;;;;9.52;3.67;;;27.30;47.20;;;;;;5054577;28;20453;-50
2020/12/17 05:00:55;;;;;;;10.18;3.70;;;27.20;47.20;;;;;;5054085;28;20025;-50
2020/12/17 05:03:23;;;;;;;9.82;3.20;;;27.20;47.30;;;;;;5053998;28;20104;-50
2020/12/17 05:05:53;;;;;;;7.68;3.15;;;27.20;47.40;;;;;;5058312;28;20021;-50
2020/12/17 05:08:22;;;;;;;12.00;3.53;;;27.20;47.40;;;;;;5074135;28;20049;-49
2020/12/17 05:10:49;;;;;;;6.10;2.85;;;27.20;47.40;;;;;;5074154;28;20021;-50
2020/12/17 05:13:17;;;;;;;21.73;3.78;;;27.20;47.60;;;;;;5073573;28;20024;-49
2020/12/17 05:15:44;;;;;;;19.95;4.50;;;27.20;47.60;;;;;;5074342;28;20024;-49
2020/12/17 05:18:11;;;;;;;12.10;3.40;;;27.20;47.80;;;;;;5073236;28;20353;-50
2020/12/17 05:20:41;;;;;;;12.93;3.67;;;27.20;47.80;;;;;;5074067;28;20021;-50
2020/12/17 05:23:07;;;;;;;10.93;3.78;;;27.30;47.80;;;;;;5073978;28;20020;-50
2020/12/17 05:25:34;;;;;;;14.10;3.90;;;27.30;47.80;;;;;;5074261;28;20078;-49
2020/12/17 05:28:01;;;;;;;15.77;3.80;;;27.30;47.80;;;;;;5074183;28;20025;-50
2020/12/17 05:30:35;;;;;;;10.73;3.67;;;27.30;47.80;;;;;;5073901;28;20035;-50
2020/12/17 05:33:03;;;;;;;12.27;3.63;;;27.40;47.80;;;;;;5073785;28;20127;-50
2020/12/17 05:35:35;;;;;;;10.95;3.58;;;27.30;47.70;;;;;;5073538;28;20103;-50
2020/12/17 05:38:04;;;;;;;9.43;3.78;;;27.40;47.80;;;;;;5073896;28;20050;-50
2020/12/17 05:40:42;;;;;;;11.93;3.72;;;27.40;47.80;;;;;;5073800;28;20021;-49
2020/12/17 05:43:10;;;;;;;10.68;3.78;;;27.40;47.70;;;;;;5073835;28;20020;-50
2020/12/17 05:45:37;;;;;;;8.65;3.15;;;27.40;47.70;;;;;;5073544;28;20020;-49
2020/12/17 05:48:14;;;;;;;8.73;3.50;;;27.40;47.60;;;;;;5073693;28;20074;-50
2020/12/17 05:50:51;;;;;;;11.77;3.50;;;27.50;47.70;;;;;;5073714;28;20519;-49
2020/12/17 05:53:17;;;;;;;11.45;3.53;;;27.50;47.60;;;;;;5073667;28;20031;-50
2020/12/17 05:55:44;;;;;;;9.98;3.40;;;27.50;47.60;;;;;;5073681;28;20025;-49
2020/12/17 05:58:11;;;;;;;10.93;3.30;;;27.50;47.60;;;;;;5073906;28;20059;-49
2020/12/17 06:00:39;;;;;;;8.18;3.30;;;27.50;47.60;;;;;;5075715;28;20052;-49
2020/12/17 06:03:12;;;;;;;11.63;3.50;;;27.50;47.50;;;;;;5077678;28;20173;-50
2020/12/17 06:05:45;;;;;;;10.52;3.13;;;27.60;47.50;;;;;;5077573;28;20402;-50
2020/12/17 06:08:20;;;;;;;7.93;3.42;;;27.60;47.50;;;;;;5077506;28;20025;-49
2020/12/17 06:11:02;;;;;;;10.05;3.60;;;27.60;47.40;;;;;;5077470;28;20024;-49
2020/12/17 06:13:32;;;;;;;8.98;3.10;;;27.70;47.50;;;;;;5077167;28;20454;-49
2020/12/17 06:16:03;;;;;;;6.78;3.30;;;27.70;47.50;;;;;;5077988;28;20341;-49
2020/12/17 06:18:44;;;;;;;10.27;3.80;;;27.70;47.40;;;;;;5077661;28;20064;-49
2020/12/17 06:21:12;;;;;;;10.40;4.00;;;27.70;47.30;;;;;;5077118;28;20298;-49
2020/12/17 06:23:39;;;;;;;10.55;3.63;;;27.70;47.30;;;;;;5077287;28;20028;-49
2020/12/17 06:26:09;;;;;;;13.50;3.90;;;27.70;47.20;;;;;;5077283;28;20024;-49
2020/12/17 06:28:49;;;;;;;8.60;3.38;;;27.70;47.20;;;;;;5076835;28;20403;-48
2020/12/17 06:31:26;;;;;;;6.85;3.70;;;27.80;47.30;;;;;;5076332;28;20025;-49
2020/12/17 06:34:03;;;;;;;8.10;3.35;;;27.70;47.00;;;;;;5077610;28;20041;-49
2020/12/17 06:36:58;;;;;;;9.55;3.42;;;27.80;47.10;;;;;;5077033;28;20033;-49
2020/12/17 06:39:25;;;;;;;8.43;3.22;;;27.80;47.20;;;;;;5076887;28;20033;-49
2020/12/17 06:41:51;;;;;;;13.48;3.90;;;27.80;47.00;;;;;;5077194;28;20016;-49
2020/12/17 06:44:32;;;;;;;11.20;3.72;;;27.80;47.00;;;;;;5071690;28;20028;-50
2020/12/17 06:47:01;;;;;;;10.20;3.80;;;27.80;47.00;;;;;;5073846;28;20178;-50
2020/12/17 06:49:31;;;;;;;10.00;3.72;;;27.70;46.90;;;;;;5074683;28;20064;-49
2020/12/17 06:52:15;;;;;;;13.07;3.65;;;27.70;46.90;;;;;;5076013;28;20103;-49
2020/12/17 06:54:42;;;;;;;10.40;3.97;;;27.70;47.00;;;;;;5076459;28;20027;-49
2020/12/17 06:57:17;;;;;;;9.65;3.60;;;27.70;46.90;;;;;;5076330;28;20376;-49
2020/12/17 07:00:12;;;;;;;10.07;3.85;;;27.70;46.90;;;;;;5076372;28;20051;-49
2020/12/17 07:02:43;;;;;;;7.55;3.70;;;27.70;47.10;;;;;;5074630;28;20032;-49
2020/12/17 07:05:31;;;;;;;10.52;3.67;;;27.60;46.80;;;;;;5075977;28;20030;-49
2020/12/17 07:07:57;;;;;;;8.45;3.67;;;27.60;47.00;;;;;;5075992;28;20054;-49
2020/12/17 07:10:25;;;;;;;9.38;3.60;;;27.60;46.90;;;;;;5075975;28;20484;-49
2020/12/17 07:12:52;;;;;;;8.40;2.75;;;27.50;46.80;;;;;;5074781;28;20024;-49
2020/12/17 07:15:30;;;;;;;7.70;3.53;;;27.50;46.90;;;;;;5075886;28;20025;-49
2020/12/17 07:18:25;;;;;;;7.63;3.45;;;27.50;46.80;;;;;;5075301;28;20023;-49
2020/12/17 07:21:02;;;;;;;10.88;3.30;;;27.50;47.00;;;;;;5075616;28;20105;-49
2020/12/17 07:23:49;;;;;;;10.18;3.53;;;27.40;46.90;;;;;;5076400;28;20021;-49
2020/12/17 07:26:15;;;;;;;9.70;3.13;;;27.30;46.90;;;;;;5076332;28;20490;-49
2020/12/17 07:28:51;;;;;;;5.00;2.60;;;27.30;46.90;;;;;;5075938;28;20040;-50
2020/12/17 07:31:30;;;;;;;7.80;2.70;;;27.30;47.00;;;;;;5075174;28;20021;-50
2020/12/17 07:33:57;;;;;;;7.20;2.67;;;27.20;47.00;;;;;;5075297;28;20037;-50
2020/12/17 07:36:45;;;;;;;5.80;2.97;;;27.20;47.10;;;;;;5075431;28;20025;-49
2020/12/17 07:39:12;;;;;;;7.10;2.90;;;27.10;47.20;;;;;;5056023;28;20028;-49
2020/12/17 07:41:39;;;;;;;6.13;3.10;;;27.10;47.20;;;;;;5056090;28;20104;-49
2020/12/17 07:44:05;;;;;;;7.80;2.80;;;27.00;47.80;;;;;;5055763;28;20028;-49
2020/12/17 07:46:42;;;;;;;6.05;2.97;;;27.00;47.20;;;;;;5072958;28;20025;-49
2020/12/17 07:49:24;;;;;;;6.00;2.88;;;26.90;47.20;;;;;;5075369;28;20104;-49
2020/12/17 07:51:51;;;;;;;6.68;2.80;;;26.80;47.30;;;;;;5075310;28;20357;-49
2020/12/17 07:54:22;;;;;;;7.88;2.85;;;26.80;47.40;;;;;;5075557;28;20403;-50
2020/12/17 07:57:00;;;;;;;5.35;2.63;;;26.70;47.40;;;;;;5055471;28;20029;-49
2020/12/17 07:59:27;;;;;;;7.07;2.65;;;26.70;47.50;;;;;;5056345;28;20110;-49
2020/12/17 08:02:03;;;;;;;6.82;2.88;;;26.60;47.60;;;;;;5074519;28;20503;-49
2020/12/17 08:04:30;;;;;;;7.70;3.10;;;26.50;47.60;;;;;;5075649;28;20032;-49
2020/12/17 08:06:56;;;;;;;7.30;2.47;;;26.40;47.70;;;;;;5075141;28;20036;-49
2020/12/17 08:09:23;;;;;;;5.82;2.58;;;26.40;47.80;;;;;;5075265;28;20025;-49
2020/12/17 08:11:56;;;;;;;6.60;2.80;;;26.30;47.80;;;;;;5074824;28;20101;-50
2020/12/17 08:14:24;;;;;;;6.18;2.20;;;26.30;47.90;;;;;;5074972;28;20013;-50
2020/12/17 08:17:02;;;;;;;6.15;2.63;;;26.20;48.00;;;;;;5074909;28;20023;-49
2020/12/17 08:19:29;;;;;;;6.47;2.70;;;26.10;48.00;;;;;;5074987;28;20024;-49
2020/12/17 08:21:57;;;;;;;5.55;2.40;;;26.10;48.10;;;;;;5075087;28;20025;-49
2020/12/17 08:24:32;;;;;;;6.03;2.55;;;26.00;48.20;;;;;;5074277;28;20028;-49
2020/12/17 08:26:59;;;;;;;6.40;2.40;;;25.90;48.30;;;;;;5074895;28;20027;-50
2020/12/17 08:29:25;;;;;;;5.47;2.40;;;25.80;48.30;;;;;;5074650;28;20032;-49
2020/12/17 08:31:53;;;;;;;4.88;2.28;;;25.80;48.50;;;;;;5074282;28;20134;-49
2020/12/17 08:34:19;;;;;;;4.57;2.40;;;25.70;48.50;;;;;;5074227;28;20059;-49
2020/12/17 08:36:46;;;;;;;7.22;2.45;;;25.60;48.60;;;;;;5074717;28;20020;-49
2020/12/17 08:39:16;;;;;;;6.38;2.40;;;25.50;48.70;;;;;;5074969;28;20020;-50
2020/12/17 08:41:52;;;;;;;8.15;2.88;;;25.50;48.80;;;;;;5074328;28;20024;-49
2020/12/17 08:44:26;;;;;;;6.78;2.50;;;25.40;48.80;;;;;;5074487;28;20028;-50
2020/12/17 08:47:06;;;;;;;5.32;2.40;;;25.30;49.00;;;;;;5063380;28;20460;-50
2020/12/17 08:49:34;;;;;;;8.65;2.42;;;25.20;49.00;;;;;;5074189;28;20456;-50
2020/12/17 08:52:01;;;;;;;6.35;2.40;;;25.20;49.20;;;;;;5074064;28;20333;-50
2020/12/17 08:54:32;;;;;;;5.25;2.28;;;25.10;49.30;;;;;;5073963;28;20150;-49
2020/12/17 08:57:03;;;;;;;4.47;2.28;;;25.00;49.40;;;;;;5073932;28;20483;-50
2020/12/17 08:59:30;;;;;;;4.55;2.20;;;24.90;49.50;;;;;;5074243;28;20036;-50
2020/12/17 09:01:58;;;;;;;6.78;2.40;;;24.90;49.60;;;;;;5073468;28;20097;-49
2020/12/17 09:04:26;;;;;;;5.93;2.40;;;24.80;49.70;;;;;;5074288;28;20043;-50
2020/12/17 09:06:59;;;;;;;6.63;2.50;;;24.80;49.90;;;;;;5073543;28;20033;-50
2020/12/17 09:09:27;;;;;;;5.88;2.63;;;24.70;50.00;;;;;;5072938;28;20463;-50
2020/12/17 09:11:56;;;;;;;5.38;2.25;;;24.60;50.10;;;;;;5074043;28;20105;-49
2020/12/17 09:14:30;;;;;;;4.63;2.17;;;24.50;50.10;;;;;;5074098;28;20024;-50
2020/12/17 09:17:09;;;;;;;4.85;2.40;;;24.50;50.30;;;;;;5074862;28;20105;-50
2020/12/17 09:19:36;;;;;;;4.95;2.30;;;24.40;50.40;;;;;;5073859;28;20032;-49
2020/12/17 09:22:02;;;;;;;6.07;2.53;;;24.30;50.50;;;;;;5073737;28;20028;-50
2020/12/17 09:24:39;;;;;;;8.07;2.58;;;24.30;50.60;;;;;;5073809;28;20024;-50
2020/12/17 09:27:18;;;;;;;4.10;2.15;;;24.20;50.60;;;;;;5073890;28;20024;-50
2020/12/17 09:30:04;;;;;;;5.18;2.47;;;24.10;50.80;;;;;;5073842;28;20031;-49
2020/12/17 09:32:32;;;;;;;4.07;2.20;;;24.00;50.80;;;;;;5073282;28;20457;-50
2020/12/17 09:35:16;;;;;;;6.07;2.38;;;23.90;51.00;;;;;;5073078;28;20052;-50
2020/12/17 09:37:56;;;;;;;4.35;2.22;;;23.90;51.10;;;;;;5073964;28;20095;-50
2020/12/17 09:40:23;;;;;;;4.40;2.03;;;23.80;51.20;;;;;;5074134;28;20059;-49
2020/12/17 09:43:11;;;;;;;6.47;2.22;;;23.70;51.30;;;;;;5073785;28;20028;-50
2020/12/17 09:45:38;;;;;;;5.68;2.28;;;23.70;51.50;;;;;;5073533;28;20024;-49
2020/12/17 09:48:17;;;;;;;4.10;1.88;;;23.60;51.60;;;;;;5073748;28;20024;-50
2020/12/17 09:51:07;;;;;;;4.90;1.90;;;23.60;51.70;;;;;;5074627;28;20028;-49
2020/12/17 09:53:35;;;;;;;5.53;2.28;;;23.50;51.90;;;;;;5073508;28;20457;-50
2020/12/17 09:56:02;;;;;;;5.22;1.88;;;23.40;51.90;;;;;;5073586;28;20036;-49
2020/12/17 09:58:28;;;;;;;7.90;2.38;;;23.30;52.00;;;;;;5073431;28;20036;-50
2020/12/17 10:00:55;;;;;;;4.43;2.25;;;23.30;52.10;;;;;;5072906;28;20025;-49
2020/12/17 10:03:22;;;;;;;8.20;2.45;;;23.20;52.30;;;;;;5073284;28;20025;-50
2020/12/17 10:05:49;;;;;;;4.88;2.03;;;23.20;52.40;;;;;;5073336;28;20029;-49
2020/12/17 10:08:16;;;;;;;7.20;1.90;;;23.10;52.50;;;;;;5073494;28;20071;-50
2020/12/17 10:10:42;;;;;;;5.68;1.88;;;23.00;52.70;;;;;;5073053;28;20032;-49
2020/12/17 10:13:09;;;;;;;6.85;2.10;;;22.90;52.70;;;;;;5073567;28;20020;-50
2020/12/17 10:15:38;;;;;;;4.15;1.73;;;22.90;52.80;;;;;;5073188;28;20032;-50
2020/12/17 10:18:05;;;;;;;4.95;2.33;;;22.90;53.00;;;;;;5073222;28;20020;-50
2020/12/17 10:20:31;;;;;;;4.97;2.17;;;22.80;53.10;;;;;;5073208;28;20104;-50
2020/12/17 10:22:58;;;;;;;4.15;1.90;;;22.80;53.20;;;;;;5073465;28;20028;-50
2020/12/17 10:25:24;;;;;;;2.83;1.70;;;22.70;53.20;;;;;;5073171;28;20032;-50
2020/12/17 10:27:52;;;;;;;4.75;1.90;;;22.60;53.40;;;;;;5073061;28;20110;-50
2020/12/17 10:30:19;;;;;;;3.60;1.70;;;22.60;53.50;;;;;;5072683;28;20033;-49
2020/12/17 10:32:45;;;;;;;4.57;2.03;;;22.50;53.50;;;;;;5072436;28;20059;-50
2020/12/17 10:35:12;;;;;;;5.15;1.67;;;22.50;53.60;;;;;;5073607;28;20036;-49
2020/12/17 10:37:43;;;;;;;5.13;2.00;;;22.40;53.70;;;;;;5073317;28;20082;-50
2020/12/17 10:40:12;;;;;;;4.70;1.80;;;22.30;53.70;;;;;;5072813;28;20422;-50
2020/12/17 10:42:39;;;;;;;2.53;1.40;;;22.30;53.90;;;;;;5073243;28;20621;-50
2020/12/17 10:45:09;;;;;;;4.32;1.67;;;22.20;53.90;;;;;;5073068;28;20078;-50
2020/12/17 10:47:37;;;;;;;3.78;1.70;;;22.20;53.90;;;;;;5075764;28;20032;-50
2020/12/17 10:50:08;;;;;;;4.25;1.95;;;22.10;54.00;;;;;;5076670;28;20028;-49
2020/12/17 10:52:35;;;;;;;3.88;1.67;;;22.10;54.10;;;;;;5076522;28;20023;-50
2020/12/17 10:55:02;;;;;;;3.55;1.85;;;22.00;54.20;;;;;;5076734;28;20016;-50
2020/12/17 10:57:28;;;;;;;3.75;1.52;;;22.00;54.20;;;;;;5076611;28;20028;-50
2020/12/17 10:59:55;;;;;;;3.85;2.00;;;21.90;54.30;;;;;;5076212;28;20032;-49
2020/12/17 11:02:21;;;;;;;3.45;1.60;;;21.90;54.40;;;;;;5076051;28;20024;-50
2020/12/17 11:04:48;;;;;;;5.32;1.63;;;21.80;54.50;;;;;;5076549;28;20465;-50
2020/12/17 11:07:14;;;;;;;5.38;1.80;;;21.70;54.40;;;;;;5075941;28;20036;-50
2020/12/17 11:09:41;;;;;;;4.22;1.80;;;21.70;54.50;;;;;;5075288;28;20018;-49
2020/12/17 11:12:08;;;;;;;3.67;1.73;;;21.70;54.60;;;;;;5076111;28;20484;-50
2020/12/17 11:14:35;;;;;;;2.03;1.40;;;21.60;54.60;;;;;;5076367;28;20525;-50
2020/12/17 11:17:03;;;;;;;4.65;1.73;;;21.50;54.70;;;;;;5076270;28;20020;-50
2020/12/17 11:19:29;;;;;;;3.10;1.40;;;21.50;54.80;;;;;;5075956;28;20468;-49
2020/12/17 11:21:59;;;;;;;3.50;1.63;;;21.40;54.80;;;;;;5076213;28;20075;-50
2020/12/17 11:24:26;;;;;;;4.95;1.60;;;21.40;54.90;;;;;;5075848;28;20020;-50
2020/12/17 11:26:53;;;;;;;2.92;1.30;;;21.30;54.90;;;;;;5076024;28;20107;-50
2020/12/17 11:29:20;;;;;;;3.00;1.60;;;21.30;55.00;;;;;;5075567;28;20029;-49
2020/12/17 11:31:47;;;;;;;3.08;1.50;;;21.20;55.10;;;;;;5075569;28;20040;-50
2020/12/17 11:34:14;;;;;;;2.88;1.40;;;21.20;55.10;;;;;;5076363;28;20058;-50
2020/12/17 11:36:42;;;;;;;3.28;1.15;;;21.20;55.20;;;;;;5075892;28;20097;-50
2020/12/17 11:39:09;;;;;;;2.72;1.27;;;21.10;55.30;;;;;;5075592;28;20017;-50
2020/12/17 11:41:35;;;;;;;3.22;1.35;;;21.10;55.30;;;;;;5075586;28;20099;-50
2020/12/17 11:44:02;;;;;;;2.22;1.35;;;21.00;55.30;;;;;;5075518;28;20471;-50
2020/12/17 11:46:28;;;;;;;3.63;1.30;;;21.00;55.50;;;;;;5075276;28;20035;-50
2020/12/17 11:48:55;;;;;;;2.33;1.23;;;20.90;55.50;;;;;;5075144;28;20454;-50
2020/12/17 11:51:21;;;;;;;3.00;1.45;;;20.90;55.60;;;;;;5075678;28;20028;-50
2020/12/17 11:53:48;;;;;;;3.25;1.60;;;20.80;55.60;;;;;;5075580;28;20025;-50
2020/12/17 11:56:15;;;;;;;2.97;1.27;;;20.80;55.60;;;;;;5075148;28;20025;-49
2020/12/17 11:58:43;;;;;;;3.00;1.35;;;20.70;55.70;;;;;;5075325;28;20028;-50
2020/12/17 12:01:10;;;;;;;2.63;1.30;;;20.70;55.70;;;;;;5074368;28;20483;-50
2020/12/17 12:03:38;;;;;;;3.45;1.42;;;20.70;55.80;;;;;;5075383;28;20360;-50
2020/12/17 12:06:04;;;;;;;2.30;1.30;;;20.60;55.80;;;;;;5074862;28;20047;-49
2020/12/17 12:08:31;;;;;;;4.15;1.35;;;20.60;55.90;;;;;;5075158;28;20051;-50
2020/12/17 12:10:58;;;;;;;3.90;1.23;;;20.60;56.00;;;;;;5074743;28;20033;-49
2020/12/17 12:13:25;;;;;;;2.13;1.20;;;20.50;56.00;;;;;;5075256;28;20016;-50
2020/12/17 12:15:51;;;;;;;4.07;1.45;;;20.50;56.10;;;;;;5075212;28;20016;-50
2020/12/17 12:18:18;;;;;;;2.85;1.30;;;20.50;56.10;;;;;;5075142;28;20103;-50
2020/12/17 12:20:45;;;;;;;3.08;1.20;;;20.40;56.10;;;;;;5074577;28;20147;-50
2020/12/17 12:23:15;;;;;;;2.55;1.30;;;20.30;56.10;;;;;;5075036;28;20044;-50
2020/12/17 12:25:43;;;;;;;1.92;1.02;;;20.30;56.20;;;;;;5073581;28;20043;-49
2020/12/17 12:28:10;;;;;;;2.45;1.25;;;20.30;56.30;;;;;;5074848;28;20020;-50
2020/12/17 12:30:36;;;;;;;3.75;1.25;;;20.20;56.30;;;;;;5074198;28;20479;-49
2020/12/17 12:33:03;;;;;;;4.70;1.20;;;20.20;56.40;;;;;;5074757;28;20044;-50
2020/12/17 12:35:30;;;;;;;4.00;1.23;;;20.10;56.40;;;;;;5074115;28;20025;-49
2020/12/17 12:37:56;;;;;;;4.18;1.25;;;20.10;56.50;;;;;;5074461;28;20020;-50
2020/12/17 12:40:23;;;;;;;3.15;1.15;;;20.00;56.50;;;;;;5074622;28;20457;-50
2020/12/17 12:42:49;;;;;;;2.50;1.08;;;20.00;56.50;;;;;;5074336;28;20028;-50
2020/12/17 12:45:16;;;;;;;3.90;1.17;;;20.00;56.60;;;;;;5074672;28;20043;-50
2020/12/17 12:47:42;;;;;;;3.25;1.00;;;19.90;56.50;;;;;;5074518;28;20021;-50
2020/12/17 12:50:09;;;;;;;2.00;1.00;;;19.90;56.60;;;;;;5074216;28;20085;-49
2020/12/17 12:52:35;;;;;;;5.00;1.27;;;19.90;56.60;;;;;;5074698;28;20461;-50
2020/12/17 12:55:02;;;;;;;2.45;1.10;;;19.80;56.70;;;;;;5073999;28;20025;-50